Terminal Aerodrome Forecast
Issued by NWS Upton, NY

Home | Current Version | Previous Version | Text Only | Print | Product List | Glossary On
Versions: 1 2 3 4 5 6 7 8 9 10 11 12 13 14 15 16 17 18 19 20 21 22 23 24 25 26 27 28 29 30
714
FTUS41 KOKX 121343 AAB
TAFJFK
TAF AMD
KJFK 121343Z 1214/1318 17013G20KT P6SM VCSH SCT030 BKN050
      TEMPO 1214/1217 BKN030
     FM121700 23013G21KT P6SM VCSH BKN030 BKN050
     FM130000 27018G27KT P6SM BKN040
     FM130300 29020G32KT P6SM -SHSN BKN040
     FM130700 28020G34KT P6SM SCT040 BKN100
     FM131300 29025G38KT P6SM BKN100=

USA.gov is the U.S. government's official web portal to all federal, state and local government web resources and services.